createdAt,value
2018-12-19T00:00:57.889Z,40.75
2018-12-19T00:03:25.651Z,41.02
2018-12-19T00:05:53.417Z,40.75
2018-12-19T00:08:21.181Z,40.40
2018-12-19T00:10:48.944Z,41.98
2018-12-19T00:13:18.859Z,43.90
2018-12-19T00:15:46.726Z,42.65
2018-12-19T00:18:14.698Z,40.10
2018-12-19T00:20:42.459Z,41.15
2018-12-19T00:23:10.223Z,43.30
2018-12-19T00:25:38.041Z,43.58
2018-12-19T00:28:05.854Z,44.88
2018-12-19T00:30:33.678Z,45.35
2018-12-19T00:33:01.486Z,48.23
2018-12-19T00:35:29.249Z,48.58
2018-12-19T00:37:57.014Z,46.80
2018-12-19T00:40:24.828Z,46.55
2018-12-19T00:42:52.645Z,47.20
2018-12-19T00:45:20.409Z,45.78
2018-12-19T00:47:48.175Z,48.15
2018-12-19T00:50:16.040Z,45.38
2018-12-19T00:52:43.805Z,47.53
2018-12-19T00:55:11.673Z,46.53
2018-12-19T00:57:39.436Z,50.60
2018-12-19T01:00:09.277Z,48.02
2018-12-19T01:02:37.114Z,46.70
2018-12-19T01:05:04.984Z,49.10
2018-12-19T01:07:32.746Z,46.60
2018-12-19T01:10:00.510Z,51.75
2018-12-19T01:12:28.274Z,51.95
2018-12-19T01:14:56.141Z,52.80
2018-12-19T01:17:23.906Z,52.67
2018-12-19T01:19:51.670Z,49.53
2018-12-19T01:22:19.536Z,50.38
2018-12-19T01:24:47.233Z,48.60
2018-12-19T01:27:15.068Z,49.45
2018-12-19T01:29:42.829Z,48.95
2018-12-19T01:32:10.696Z,50.08
2018-12-19T01:34:38.461Z,50.83
2018-12-19T01:37:06.327Z,52.17
2018-12-19T01:39:34.194Z,52.13
2018-12-19T01:42:01.958Z,50.95
2018-12-19T01:44:29.666Z,49.33
2018-12-19T01:46:57.487Z,52.40
2018-12-19T01:49:25.353Z,47.43
2018-12-19T01:51:53.118Z,50.45
2018-12-19T01:54:20.881Z,50.03
2018-12-19T01:56:48.648Z,48.52
2018-12-19T01:59:16.513Z,49.10
2018-12-19T02:01:44.380Z,47.90
2018-12-19T02:04:12.144Z,45.52
2018-12-19T02:06:39.858Z,49.80
2018-12-19T02:09:07.877Z,48.40
2018-12-19T02:11:35.743Z,48.75
2018-12-19T02:14:03.716Z,46.28
2018-12-19T02:16:31.580Z,47.10
2018-12-19T02:18:59.446Z,47.08
2018-12-19T02:21:27.313Z,43.08
2018-12-19T02:23:55.180Z,43.52
2018-12-19T02:26:22.946Z,48.50
2018-12-19T02:28:50.711Z,44.60
2018-12-19T02:31:18.472Z,44.08
2018-12-19T02:33:48.521Z,44.85
2018-12-19T02:36:19.535Z,47.60
2018-12-19T02:38:51.360Z,43.45
2018-12-19T02:41:19.155Z,44.25
2018-12-19T02:43:46.981Z,45.38
2018-12-19T02:46:14.787Z,43.20
2018-12-19T02:48:42.552Z,43.68
2018-12-19T02:51:10.314Z,41.23
2018-12-19T02:53:38.079Z,40.38
2018-12-19T02:56:05.842Z,41.05
2018-12-19T02:58:33.713Z,39.92
2018-12-19T03:01:01.576Z,40.63
2018-12-19T03:03:29.346Z,42.30
2018-12-19T03:05:57.207Z,41.28
2018-12-19T03:08:25.074Z,39.10
2018-12-19T03:10:53.043Z,40.95
2018-12-19T03:13:20.807Z,42.20
2018-12-19T03:15:48.571Z,41.42
2018-12-19T03:18:16.439Z,43.58
2018-12-19T03:20:44.203Z,41.42
2018-12-19T03:23:12.077Z,42.73
2018-12-19T03:25:39.836Z,40.83
2018-12-19T03:28:07.645Z,41.45
2018-12-19T03:30:35.465Z,42.80
2018-12-19T03:33:03.333Z,43.35
2018-12-19T03:35:31.197Z,41.28
2018-12-19T03:37:58.962Z,42.80
2018-12-19T03:40:26.829Z,41.50
2018-12-19T03:42:54.700Z,44.25
2018-12-19T03:45:22.562Z,42.98
2018-12-19T03:47:50.326Z,40.15
2018-12-19T03:50:18.090Z,41.00
2018-12-19T03:52:45.861Z,43.33
2018-12-19T03:55:13.729Z,43.58
2018-12-19T03:57:41.587Z,41.75
2018-12-19T04:00:09.456Z,44.50
2018-12-19T04:02:37.220Z,43.73
2018-12-19T04:05:05.088Z,42.78
2018-12-19T04:07:32.955Z,44.58
2018-12-19T04:10:00.823Z,42.38
2018-12-19T04:12:28.588Z,44.03
2018-12-19T04:14:56.350Z,42.13
2018-12-19T04:17:24.117Z,41.75
2018-12-19T04:19:51.981Z,42.78
2018-12-19T04:22:19.851Z,43.73
2018-12-19T04:24:47.614Z,42.17
2018-12-19T04:27:15.375Z,42.95
2018-12-19T04:29:43.293Z,41.08
2018-12-19T04:32:11.317Z,44.88
2018-12-19T04:34:39.079Z,42.20
2018-12-19T04:37:06.842Z,42.25
2018-12-19T04:39:34.711Z,44.08
2018-12-19T04:42:02.575Z,43.73
2018-12-19T04:44:30.341Z,44.50
2018-12-19T04:46:58.104Z,43.95
2018-12-19T04:49:25.877Z,44.85
2018-12-19T04:51:53.736Z,41.73
2018-12-19T04:54:21.501Z,41.42
2018-12-19T04:56:49.264Z,41.35
2018-12-19T04:59:17.138Z,41.05
2018-12-19T05:01:44.997Z,39.73
2018-12-19T05:04:12.864Z,36.38
2018-12-19T05:06:40.573Z,40.38
2018-12-19T05:09:08.393Z,37.30
2018-12-19T05:11:36.206Z,39.23
2018-12-19T05:14:04.024Z,38.28
2018-12-19T05:16:31.890Z,38.00
2018-12-19T05:18:59.757Z,38.60
2018-12-19T05:21:27.461Z,37.35
2018-12-19T05:23:55.284Z,33.83
2018-12-19T05:26:23.158Z,33.53
2018-12-19T05:28:50.965Z,34.60
2018-12-19T05:31:18.784Z,31.75
2018-12-19T05:33:46.649Z,31.55
2018-12-19T05:36:14.517Z,30.40
2018-12-19T05:38:42.281Z,32.13
2018-12-19T05:41:10.251Z,30.88
2018-12-19T05:43:38.015Z,28.67
2018-12-19T05:46:05.882Z,29.92
2018-12-19T05:48:33.646Z,28.07
2018-12-19T05:51:01.456Z,29.18
2018-12-19T05:53:29.276Z,29.15
2018-12-19T05:55:57.040Z,30.02
2018-12-19T05:58:24.907Z,31.42
2018-12-19T06:00:52.792Z,29.98
2018-12-19T06:03:20.640Z,29.55
2018-12-19T06:05:48.509Z,31.33
2018-12-19T06:08:16.271Z,28.57
2018-12-19T06:10:44.035Z,30.48
2018-12-19T06:13:11.902Z,29.95
2018-12-19T06:15:39.770Z,28.60
2018-12-19T06:18:07.537Z,29.65
2018-12-19T06:20:36.527Z,30.43
2018-12-19T06:23:09.615Z,28.23
2018-12-19T06:25:37.325Z,30.35
2018-12-19T06:28:05.144Z,28.20
2018-12-19T06:30:33.217Z,31.30
2018-12-19T06:33:01.082Z,28.15
2018-12-19T06:35:28.846Z,31.55
2018-12-19T06:37:56.713Z,28.52
2018-12-19T06:40:24.477Z,29.80
2018-12-19T06:42:52.350Z,29.20
2018-12-19T06:45:20.108Z,31.05
2018-12-19T06:47:47.872Z,30.92
2018-12-19T06:50:15.687Z,28.77
2018-12-19T06:52:43.507Z,28.25
2018-12-19T06:55:11.271Z,29.77
2018-12-19T06:57:39.134Z,28.83
2018-12-19T07:00:07.922Z,27.02
2018-12-19T07:02:35.690Z,25.65
2018-12-19T07:05:03.965Z,24.52
2018-12-19T07:07:31.728Z,25.75
2018-12-19T07:09:59.595Z,26.05
2018-12-19T07:12:27.461Z,24.82
2018-12-19T07:14:55.329Z,25.55
2018-12-19T07:17:23.095Z,25.20
2018-12-19T07:19:50.860Z,24.23
2018-12-19T07:22:18.625Z,23.70
2018-12-19T07:24:46.487Z,23.80
2018-12-19T07:27:15.124Z,23.55
2018-12-19T07:29:42.880Z,25.62
2018-12-19T07:32:10.701Z,23.73
2018-12-19T07:34:44.025Z,23.22
2018-12-19T07:37:08.382Z,25.40
2018-12-19T07:39:36.247Z,25.82
2018-12-19T07:42:04.011Z,24.75
2018-12-19T07:44:31.777Z,24.98
2018-12-19T07:46:59.541Z,24.98
2018-12-19T07:49:27.406Z,25.35
2018-12-19T07:51:55.171Z,29.52
2018-12-19T07:54:23.040Z,29.05
2018-12-19T07:56:50.857Z,31.68
2018-12-19T07:59:18.669Z,29.50
2018-12-19T08:01:46.377Z,30.45
2018-12-19T08:04:14.402Z,29.23
2018-12-19T08:06:42.166Z,27.22
2018-12-19T08:09:10.033Z,26.37
2018-12-19T08:11:37.798Z,25.65
2018-12-19T08:14:05.664Z,24.87
2018-12-19T08:16:33.530Z,26.55
2018-12-19T08:19:01.499Z,23.20
2018-12-19T08:21:29.264Z,23.98
2018-12-19T08:23:57.146Z,23.60
2018-12-19T08:26:24.998Z,24.02
2018-12-19T08:28:52.864Z,23.15
2018-12-19T08:31:20.935Z,24.32
2018-12-19T08:33:48.759Z,23.27
2018-12-19T08:36:16.566Z,22.82
2018-12-19T08:38:44.434Z,22.30
2018-12-19T08:41:12.366Z,23.00
2018-12-19T08:43:40.169Z,23.73
2018-12-19T08:46:14.427Z,22.00
2018-12-19T08:48:37.845Z,23.20
2018-12-19T08:51:05.611Z,21.07
2018-12-19T08:53:33.477Z,21.73
2018-12-19T08:56:01.242Z,23.70
2018-12-19T08:58:29.108Z,22.67
2018-12-19T09:00:56.978Z,20.92
2018-12-19T09:03:24.943Z,20.90
2018-12-19T09:05:52.708Z,21.87
2018-12-19T09:08:20.409Z,21.45
2018-12-19T09:10:48.237Z,22.50
2018-12-19T09:13:16.625Z,22.32
2018-12-19T09:15:50.368Z,23.42
2018-12-19T09:18:19.006Z,23.20
2018-12-19T09:20:46.870Z,22.02
2018-12-19T09:23:14.581Z,21.70
2018-12-19T09:25:42.548Z,22.10
2018-12-19T09:28:10.367Z,22.32
2018-12-19T09:30:38.234Z,19.85
2018-12-19T09:33:06.100Z,21.68
2018-12-19T09:35:33.967Z,18.90
2018-12-19T09:38:01.833Z,21.73
2018-12-19T09:40:29.701Z,20.60
2018-12-19T09:42:57.513Z,21.12
2018-12-19T09:45:26.870Z,21.57
2018-12-19T09:47:54.734Z,21.23
2018-12-19T09:50:22.500Z,21.00
2018-12-19T09:52:50.365Z,23.55
2018-12-19T09:55:18.232Z,20.68
2018-12-19T09:57:46.097Z,20.45
2018-12-19T10:00:16.012Z,21.45
2018-12-19T10:02:43.878Z,19.48
2018-12-19T10:05:11.746Z,20.25
2018-12-19T10:07:40.184Z,21.90
2018-12-19T10:10:08.297Z,19.27
2018-12-19T10:12:38.464Z,18.48
2018-12-19T10:15:08.768Z,18.45
2018-12-19T10:17:41.071Z,19.70
2018-12-19T10:20:09.696Z,17.12
2018-12-19T10:22:37.563Z,17.80
2018-12-19T10:25:12.188Z,19.77
2018-12-19T10:27:40.890Z,20.52
2018-12-19T10:30:10.277Z,18.57
2018-12-19T10:32:40.240Z,18.70
2018-12-19T10:35:09.236Z,19.62
2018-12-19T10:37:37.153Z,20.35
2018-12-19T10:40:08.632Z,19.60
2018-12-19T10:42:36.471Z,20.17
2018-12-19T10:45:07.122Z,18.20
2018-12-19T10:47:34.969Z,18.40
2018-12-19T10:50:02.836Z,18.20
2018-12-19T10:52:30.704Z,18.07
2018-12-19T10:54:58.672Z,19.23
2018-12-19T10:57:26.538Z,17.65
2018-12-19T10:59:54.405Z,20.32
2018-12-19T11:02:22.121Z,17.85
2018-12-19T11:04:50.038Z,18.23
2018-12-19T11:07:17.904Z,36.13
2018-12-19T11:09:45.770Z,28.27
2018-12-19T11:12:13.537Z,18.15
2018-12-19T11:14:41.400Z,20.23
2018-12-19T11:17:09.472Z,19.23
2018-12-19T11:19:37.279Z,16.77
2018-12-19T11:22:07.218Z,18.70
2018-12-19T11:24:35.017Z,15.90
2018-12-19T11:27:02.990Z,18.95
2018-12-19T11:29:30.853Z,17.05
2018-12-19T11:31:58.619Z,17.50
2018-12-19T11:34:26.384Z,18.57
2018-12-19T11:36:54.144Z,18.02
2018-12-19T11:39:21.910Z,17.50
2018-12-19T11:41:49.776Z,17.80
2018-12-19T11:44:17.643Z,17.73
2018-12-19T11:46:45.510Z,16.50
2018-12-19T11:49:13.376Z,16.40
2018-12-19T11:51:41.189Z,17.62
2018-12-19T11:54:09.007Z,15.68
2018-12-19T11:56:36.772Z,17.02
2018-12-19T11:59:04.638Z,17.35
2018-12-19T12:01:33.067Z,17.12
2018-12-19T12:04:00.884Z,16.55
2018-12-19T12:06:28.751Z,15.30
2018-12-19T12:08:56.617Z,16.30
2018-12-19T12:11:24.483Z,14.85
2018-12-19T12:13:52.352Z,16.52
2018-12-19T12:16:20.114Z,20.12
2018-12-19T12:18:47.878Z,14.53
2018-12-19T12:21:15.642Z,14.10
2018-12-19T12:23:47.272Z,13.95
2018-12-19T12:26:13.321Z,14.63
2018-12-19T12:28:41.086Z,13.88
2018-12-19T12:31:08.954Z,14.65
2018-12-19T12:33:36.716Z,14.20
2018-12-19T12:36:04.732Z,14.03
2018-12-19T12:38:34.236Z,14.28
2018-12-19T12:41:02.267Z,14.68
2018-12-19T12:43:30.027Z,15.20
2018-12-19T12:45:57.893Z,15.20
2018-12-19T12:48:25.881Z,14.60
2018-12-19T12:50:53.729Z,16.30
2018-12-19T12:53:21.495Z,15.10
2018-12-19T12:55:49.261Z,15.35
2018-12-19T12:58:17.021Z,15.78
2018-12-19T13:00:44.832Z,16.62
2018-12-19T13:03:12.654Z,17.17
2018-12-19T13:05:40.535Z,17.85
2018-12-19T13:08:08.389Z,16.48
2018-12-19T13:10:36.405Z,17.55
2018-12-19T13:13:04.891Z,18.62
2018-12-19T13:15:39.872Z,17.37
2018-12-19T13:18:07.742Z,18.90
2018-12-19T13:20:35.604Z,17.85
2018-12-19T13:23:03.368Z,17.92
2018-12-19T13:25:31.236Z,19.80
2018-12-19T13:27:59.204Z,18.92
2018-12-19T13:30:26.915Z,19.52
2018-12-19T13:32:54.732Z,19.75
2018-12-19T13:35:22.496Z,19.07
2018-12-19T13:37:50.261Z,19.32
2018-12-19T13:40:18.027Z,18.90
2018-12-19T13:42:45.891Z,20.05
2018-12-19T13:45:13.655Z,20.62
2018-12-19T13:47:41.420Z,20.57
2018-12-19T13:50:09.185Z,21.10
2018-12-19T13:52:37.051Z,20.05
2018-12-19T13:55:05.289Z,20.40
2018-12-19T13:57:33.092Z,19.95
2018-12-19T14:00:00.856Z,19.07
2018-12-19T14:02:28.623Z,19.90
2018-12-19T14:04:56.384Z,18.15
2018-12-19T14:07:24.252Z,17.35
2018-12-19T14:09:52.987Z,20.15
2018-12-19T14:12:21.418Z,19.25
2018-12-19T14:14:49.184Z,17.82
2018-12-19T14:17:17.050Z,17.92
2018-12-19T14:19:44.925Z,17.57
2018-12-19T14:22:12.783Z,18.10
2018-12-19T14:24:42.040Z,16.27
2018-12-19T14:27:10.563Z,16.30
2018-12-19T14:29:38.328Z,19.17
2018-12-19T14:32:06.195Z,18.23
2018-12-19T14:34:34.060Z,16.90
2018-12-19T14:37:01.825Z,16.70
2018-12-19T14:39:29.589Z,16.15
2018-12-19T14:41:57.354Z,15.10
2018-12-19T14:44:25.118Z,16.70
2018-12-19T14:46:52.984Z,15.63
2018-12-19T14:49:20.751Z,14.30
2018-12-19T14:51:48.513Z,14.05
2018-12-19T14:54:16.277Z,12.28
2018-12-19T14:56:44.041Z,13.90
2018-12-19T14:59:11.753Z,15.30
2018-12-19T15:01:39.617Z,14.15
2018-12-19T15:04:07.380Z,14.00
2018-12-19T15:06:35.201Z,13.68
2018-12-19T15:09:03.787Z,15.08
2018-12-19T15:11:31.656Z,18.98
2018-12-19T15:13:59.416Z,15.72
2018-12-19T15:16:27.384Z,13.20
2018-12-19T15:18:55.147Z,14.43
2018-12-19T15:21:22.958Z,14.30
2018-12-19T15:23:50.779Z,15.35
2018-12-19T15:26:18.545Z,15.83
2018-12-19T15:28:46.410Z,13.48
2018-12-19T15:31:14.276Z,14.93
2018-12-19T15:33:42.041Z,16.00
2018-12-19T15:36:10.112Z,13.03
2018-12-19T15:38:37.875Z,15.90
2018-12-19T15:41:05.644Z,14.28
2018-12-19T15:43:33.511Z,13.83
2018-12-19T15:46:01.271Z,14.73
2018-12-19T15:48:29.139Z,15.45
2018-12-19T15:50:57.005Z,16.60
2018-12-19T15:53:24.769Z,16.87
2018-12-19T15:55:52.532Z,16.65
2018-12-19T15:58:20.296Z,15.28
2018-12-19T16:00:48.061Z,15.25
2018-12-19T16:03:15.928Z,15.85
2018-12-19T16:05:43.795Z,16.07
2018-12-19T16:08:11.559Z,15.60
2018-12-19T16:10:39.428Z,26.05
2018-12-19T16:13:07.302Z,27.37
2018-12-19T16:15:35.057Z,20.12
2018-12-19T16:18:02.923Z,15.53
2018-12-19T16:20:30.687Z,15.90
2018-12-19T16:22:58.451Z,16.35
2018-12-19T16:25:26.216Z,15.98
2018-12-19T16:27:54.087Z,16.02
2018-12-19T16:30:21.954Z,16.15
2018-12-19T16:32:49.739Z,16.77
2018-12-19T16:35:17.684Z,16.62
2018-12-19T16:37:45.757Z,18.75
2018-12-19T16:40:13.465Z,19.10
2018-12-19T16:42:46.071Z,16.30
2018-12-19T16:45:11.133Z,17.67
2018-12-19T16:47:38.965Z,17.37
2018-12-19T16:50:06.697Z,18.12
2018-12-19T16:52:34.405Z,17.42
2018-12-19T16:55:02.254Z,18.57
2018-12-19T16:57:29.971Z,18.77
2018-12-19T16:59:57.784Z,17.77
2018-12-19T17:02:27.818Z,19.02
2018-12-19T17:04:58.816Z,19.62
2018-12-19T17:07:31.833Z,20.65
2018-12-19T17:10:02.069Z,24.20
2018-12-19T17:12:36.518Z,29.77
2018-12-19T17:15:07.628Z,37.80
2018-12-19T17:17:45.278Z,32.90
2018-12-19T17:20:14.534Z,34.00
2018-12-19T17:22:43.730Z,28.57
2018-12-19T17:25:12.508Z,31.40
2018-12-19T17:27:41.535Z,31.20
2018-12-19T17:30:10.953Z,35.95
2018-12-19T17:32:38.760Z,38.45
2018-12-19T17:35:06.449Z,40.48
2018-12-19T17:37:34.136Z,42.25
2018-12-19T17:40:01.824Z,35.52
2018-12-19T17:42:29.528Z,36.45
2018-12-19T17:44:57.355Z,36.40
2018-12-19T17:47:25.040Z,35.00
2018-12-19T17:49:52.741Z,32.20
2018-12-19T17:52:20.505Z,35.05
2018-12-19T17:54:48.192Z,36.63
2018-12-19T17:57:15.875Z,33.78
2018-12-19T17:59:46.211Z,34.53
2018-12-19T18:02:17.848Z,33.05
2018-12-19T18:04:49.318Z,37.03
2018-12-19T18:07:20.483Z,33.67
2018-12-19T18:09:50.540Z,32.70
2018-12-19T18:12:20.285Z,36.13
2018-12-19T18:14:49.536Z,33.95
2018-12-19T18:17:17.721Z,30.45
2018-12-19T18:19:45.585Z,29.32
2018-12-19T18:22:13.316Z,30.40
2018-12-19T18:24:41.192Z,29.85
2018-12-19T18:27:08.920Z,28.02
2018-12-19T18:29:36.612Z,27.10
2018-12-19T18:32:04.508Z,28.15
2018-12-19T18:34:32.193Z,28.25
2018-12-19T18:37:00.720Z,28.05
2018-12-19T18:39:28.752Z,26.45
2018-12-19T18:41:56.437Z,26.97
2018-12-19T18:44:24.351Z,31.37
2018-12-19T18:46:52.166Z,28.98
2018-12-19T18:49:19.896Z,27.77
2018-12-19T18:51:47.766Z,30.43
2018-12-19T18:54:15.761Z,27.85
2018-12-19T18:56:43.805Z,28.80
2018-12-19T18:59:11.574Z,29.30
2018-12-19T19:01:39.520Z,31.95
2018-12-19T19:04:07.748Z,29.60
2018-12-19T19:06:35.450Z,27.30
2018-12-19T19:09:04.682Z,30.17
2018-12-19T19:11:33.027Z,27.85
2018-12-19T19:14:00.749Z,28.60
2018-12-19T19:16:28.428Z,29.35
2018-12-19T19:18:56.305Z,31.73
2018-12-19T19:21:26.001Z,29.27
2018-12-19T19:23:54.127Z,29.85
2018-12-19T19:26:21.897Z,29.07
2018-12-19T19:28:49.937Z,27.20
2018-12-19T19:31:18.276Z,28.32
2018-12-19T19:33:46.006Z,27.70
2018-12-19T19:36:13.701Z,26.40
2018-12-19T19:38:41.394Z,29.30
2018-12-19T19:41:09.176Z,24.95
2018-12-19T19:43:36.892Z,26.20
2018-12-19T19:46:04.658Z,27.32
2018-12-19T19:48:32.525Z,24.60
2018-12-19T19:51:00.390Z,25.30
2018-12-19T19:53:28.073Z,25.77
2018-12-19T19:55:55.817Z,23.20
2018-12-19T19:58:23.521Z,22.50
2018-12-19T20:00:51.349Z,23.30
2018-12-19T20:03:19.417Z,21.75
2018-12-19T20:05:48.492Z,23.50
2018-12-19T20:08:16.277Z,21.10
2018-12-19T20:10:43.964Z,23.40
2018-12-19T20:13:11.649Z,24.07
2018-12-19T20:15:39.366Z,22.70
2018-12-19T20:18:07.206Z,22.37
2018-12-19T20:20:34.893Z,21.55
2018-12-19T20:23:02.569Z,22.80
2018-12-19T20:25:30.255Z,20.08
2018-12-19T20:27:57.949Z,21.55
2018-12-19T20:30:25.642Z,20.70
2018-12-19T20:32:53.327Z,20.17
2018-12-19T20:35:21.006Z,22.22
2018-12-19T20:37:48.693Z,20.82
2018-12-19T20:40:16.387Z,22.45
2018-12-19T20:42:44.081Z,23.02
2018-12-19T20:45:13.328Z,21.07
2018-12-19T20:47:41.169Z,21.23
2018-12-19T20:50:09.068Z,22.73
2018-12-19T20:52:36.765Z,21.52
2018-12-19T20:55:05.114Z,22.82
2018-12-19T20:57:32.913Z,22.05
2018-12-19T21:00:00.762Z,23.38
2018-12-19T21:02:28.525Z,22.42
2018-12-19T21:04:56.205Z,22.98
2018-12-19T21:07:23.917Z,23.95
2018-12-19T21:09:51.614Z,24.25
2018-12-19T21:12:19.292Z,25.82
2018-12-19T21:14:47.141Z,27.37
2018-12-19T21:17:20.845Z,26.97
2018-12-19T21:19:49.121Z,28.77
2018-12-19T21:22:16.886Z,27.07
2018-12-19T21:24:44.855Z,28.40
2018-12-19T21:27:12.619Z,29.98
2018-12-19T21:29:40.384Z,27.85
2018-12-19T21:32:08.251Z,27.48
2018-12-19T21:34:35.954Z,27.25
2018-12-19T21:37:03.779Z,24.95
2018-12-19T21:39:31.549Z,28.95
2018-12-19T21:41:59.339Z,27.67
2018-12-19T21:44:27.174Z,26.33
2018-12-19T21:46:54.939Z,26.00
2018-12-19T21:49:22.807Z,25.27
2018-12-19T21:51:50.721Z,24.55
2018-12-19T21:54:18.691Z,26.55
2018-12-19T21:56:46.583Z,25.45
2018-12-19T21:59:14.374Z,28.70
2018-12-19T22:01:42.241Z,26.60
2018-12-19T22:04:10.111Z,26.55
2018-12-19T22:06:37.977Z,27.82
2018-12-19T22:09:07.498Z,28.75
2018-12-19T22:11:35.357Z,27.77
2018-12-19T22:14:03.215Z,27.05
2018-12-19T22:16:36.779Z,29.02
2018-12-19T22:19:04.681Z,27.93
2018-12-19T22:21:32.446Z,29.82
2018-12-19T22:24:00.231Z,28.05
2018-12-19T22:26:28.219Z,28.00
2018-12-19T22:28:56.147Z,27.77
2018-12-19T22:31:24.036Z,26.23
2018-12-19T22:33:51.987Z,27.48
2018-12-19T22:36:19.827Z,25.90
2018-12-19T22:38:47.717Z,27.65
2018-12-19T22:41:15.553Z,26.97
2018-12-19T22:43:43.484Z,27.05
2018-12-19T22:46:11.317Z,26.97
2018-12-19T22:48:39.082Z,27.32
2018-12-19T22:51:06.899Z,25.62
2018-12-19T22:53:34.815Z,27.00
2018-12-19T22:56:02.781Z,29.23
2018-12-19T22:58:30.650Z,28.30
2018-12-19T23:01:04.224Z,28.83
2018-12-19T23:03:37.882Z,28.65
2018-12-19T23:06:05.818Z,28.85
2018-12-19T23:08:33.777Z,28.70
2018-12-19T23:11:01.658Z,29.57
2018-12-19T23:13:29.430Z,30.05
2018-12-19T23:15:57.288Z,28.70
2018-12-19T23:18:28.295Z,29.37
2018-12-19T23:20:56.157Z,28.52
2018-12-19T23:23:24.065Z,29.10
2018-12-19T23:25:52.099Z,28.23
2018-12-19T23:28:20.004Z,29.35
2018-12-19T23:30:47.991Z,28.57
2018-12-19T23:33:15.944Z,29.42
2018-12-19T23:35:43.806Z,30.77
2018-12-19T23:38:11.673Z,29.90
2018-12-19T23:40:39.500Z,31.95
2018-12-19T23:43:07.405Z,29.23
2018-12-19T23:45:35.244Z,29.65
2018-12-19T23:48:03.142Z,29.23
2018-12-19T23:50:31.037Z,30.62
2018-12-19T23:52:58.872Z,30.37
2018-12-19T23:55:26.757Z,29.57
2018-12-19T23:57:54.608Z,28.57
